Etusivu
METAR-TAF:

METAR-TAF

Lentoasemat :

Sørkjosen, Norja

Leveyspiiri: 69-47N, Pituuspiiri: 020-58E, korkeus merenpinnasta: 0 m

Tämänhetkinen sää

Tämä raportti tehtiin 3 tuntia ja 51 minuuttia sitten, kello 08.50 UTC
Tuuli 5 kn kaakosta
Lämpötila 2°C
Kosteus 93%
Ilmanpaine 1016 hPa
Näkyvyys 10 km tai enemmän
Muutamia pilviä 2000 ft:n korkeudessa
Hajonneita pilviä 3000 ft:n korkeudessa

METAR: ENSR 190850Z 14005KT 9999 FEW020 BKN030 02/01 Q1016 WIND 1119FT 13005KT

Aika: 14:41 (12:41 UTC)


TAF: puuttuu

Säähavainnot ja -ennusteet yli 4000 lentoasemalta (METAR- ja TAF-raportit).

Käytössä olevat sääasemat on merkitty karttaan keltaisilla ja punaisilla pisteillä.

Aseta hiiri pisteen päälle nähdäksesi sääaseman nimen.

Klikkaa sitten nähdäksesi säähavainnot ja -ennusteet.

Kartan vaihtaminen: klikkaa mustalla rastilla varustettuja vihreitä pisteitä, niin voit zoomata sisään; viivalla varustettua vihreää pistettä, niin voit zoomata ulos tai vihreitä nuolia, niin pääset viereisille kartoille.


METAR-TAF: